createdAt,value
2019-05-09T00:00:43.946Z,91919.95
2019-05-09T00:03:13.954Z,91917.66
2019-05-09T00:05:44.132Z,91919.08
2019-05-09T00:08:14.082Z,91912.88
2019-05-09T00:10:44.916Z,91916.16
2019-05-09T00:13:14.433Z,91908.86
2019-05-09T00:15:43.838Z,91911.52
2019-05-09T00:18:14.315Z,91908.02
2019-05-09T00:20:49.317Z,91905.46
2019-05-09T00:23:18.586Z,91901.56
2019-05-09T00:25:47.817Z,91897.72
2019-05-09T00:28:17.047Z,91903.94
2019-05-09T00:31:14.307Z,91896.42
2019-05-09T00:33:48.145Z,91891.55
2019-05-09T00:36:17.908Z,91896.34
2019-05-09T00:38:47.243Z,91887.45
2019-05-09T00:41:16.478Z,91891.55
2019-05-09T00:43:54.169Z,91892.13
2019-05-09T00:46:33.966Z,91892.42
2019-05-09T00:49:06.044Z,91885.94
2019-05-09T00:51:35.283Z,91885.38
2019-05-09T00:54:05.171Z,91885.61
2019-05-09T00:56:34.502Z,91890.92
2019-05-09T00:59:04.399Z,91891.14
2019-05-09T01:01:34.309Z,91887.80
2019-05-09T01:04:04.522Z,91884.11
2019-05-09T01:06:34.205Z,91888.73
2019-05-09T01:09:05.326Z,91887.95
2019-05-09T01:11:34.562Z,91881.95
2019-05-09T01:14:03.802Z,91881.11
2019-05-09T01:16:33.589Z,91878.91
2019-05-09T01:19:03.720Z,91879.79
2019-05-09T01:21:33.494Z,91882.45
2019-05-09T01:24:03.526Z,91878.31
2019-05-09T01:26:33.506Z,91877.25
2019-05-09T01:29:04.335Z,91883.95
2019-05-09T01:31:33.777Z,91874.20
2019-05-09T01:34:14.354Z,91878.84
2019-05-09T01:37:03.512Z,91875.55
2019-05-09T01:39:33.706Z,91882.78
2019-05-09T01:42:03.517Z,91882.30
2019-05-09T01:44:33.474Z,91877.55
2019-05-09T01:47:03.761Z,91870.05
2019-05-09T01:49:34.342Z,91872.88
2019-05-09T01:52:03.882Z,91876.80
2019-05-09T01:54:34.264Z,91868.09
2019-05-09T01:57:03.650Z,91871.27
2019-05-09T01:59:33.983Z,91875.86
2019-05-09T02:02:08.287Z,91869.48
2019-05-09T02:04:34.674Z,91869.38
2019-05-09T02:07:04.339Z,91866.98
2019-05-09T02:09:34.429Z,91870.77
2019-05-09T02:12:04.392Z,91865.03
2019-05-09T02:14:49.637Z,91863.61
2019-05-09T02:17:37.815Z,91863.45
2019-05-09T02:20:07.541Z,91863.19
2019-05-09T02:22:36.948Z,91863.70
2019-05-09T02:25:06.975Z,91864.91
2019-05-09T02:27:36.315Z,91859.30
2019-05-09T02:30:06.375Z,91859.55
2019-05-09T02:32:36.012Z,91854.47
2019-05-09T02:35:05.683Z,91852.04
2019-05-09T02:37:38.559Z,91854.73
2019-05-09T02:40:09.289Z,91857.00
2019-05-09T02:42:39.637Z,91867.92
2019-05-09T02:45:09.031Z,91860.30
2019-05-09T02:47:38.794Z,91858.77
2019-05-09T02:50:09.634Z,91854.52
2019-05-09T02:52:39.741Z,91847.77
2019-05-09T02:55:10.880Z,91850.30
2019-05-09T02:57:40.376Z,91850.20
2019-05-09T03:00:28.864Z,91853.31
2019-05-09T03:03:19.575Z,91846.59
2019-05-09T03:05:48.733Z,91848.23
2019-05-09T03:08:19.264Z,91848.98
2019-05-09T03:10:49.362Z,91855.73
2019-05-09T03:13:19.377Z,91857.83
2019-05-09T03:15:50.266Z,91852.95
2019-05-09T03:18:19.493Z,91858.09
2019-05-09T03:21:08.944Z,91860.56
2019-05-09T03:23:39.055Z,91857.47
2019-05-09T03:26:10.199Z,91858.32
2019-05-09T03:29:01.243Z,91859.75
2019-05-09T03:31:31.578Z,91851.08
2019-05-09T03:34:00.816Z,91850.92
2019-05-09T03:36:30.148Z,91845.96
2019-05-09T03:38:59.379Z,91845.97
2019-05-09T03:41:28.620Z,91844.73
2019-05-09T03:43:58.569Z,91843.61
2019-05-09T03:46:38.542Z,91847.30
2019-05-09T03:49:08.379Z,91841.52
2019-05-09T03:51:37.993Z,91844.44
2019-05-09T03:54:08.201Z,91845.58
2019-05-09T03:56:42.121Z,91837.08
2019-05-09T03:59:11.355Z,91836.63
2019-05-09T04:01:40.629Z,91840.72
2019-05-09T04:04:09.908Z,91836.38
2019-05-09T04:06:40.865Z,91840.72
2019-05-09T04:09:10.185Z,91841.33
2019-05-09T04:11:39.447Z,91836.45
2019-05-09T04:14:12.553Z,91835.21
2019-05-09T04:16:41.780Z,91830.49
2019-05-09T04:19:12.048Z,91838.14
2019-05-09T04:21:41.300Z,91834.95
2019-05-09T04:24:10.845Z,91835.22
2019-05-09T04:26:48.453Z,91832.27
2019-05-09T04:29:18.486Z,91830.53
2019-05-09T04:31:48.439Z,91819.45
2019-05-09T04:34:18.411Z,91824.79
2019-05-09T04:36:48.330Z,91820.67
2019-05-09T04:39:23.145Z,91824.78
2019-05-09T04:41:49.050Z,91821.58
2019-05-09T04:44:57.107Z,91815.98
2019-05-09T04:47:20.219Z,91817.85
2019-05-09T04:49:49.593Z,91820.24
2019-05-09T04:52:18.821Z,91823.62
2019-05-09T04:54:48.644Z,91820.88
2019-05-09T04:57:18.012Z,91818.41
2019-05-09T04:59:47.665Z,91820.55
2019-05-09T05:02:35.072Z,91821.89
2019-05-09T05:05:04.648Z,91823.14
2019-05-09T05:07:33.880Z,91821.38
2019-05-09T05:10:03.215Z,91823.37
2019-05-09T05:12:32.426Z,91818.20
2019-05-09T05:15:01.665Z,91817.75
2019-05-09T05:17:30.922Z,91814.20
2019-05-09T05:20:00.895Z,91815.38
2019-05-09T05:22:49.077Z,91815.61
2019-05-09T05:25:18.305Z,91817.09
2019-05-09T05:27:47.619Z,91813.57
2019-05-09T05:30:17.940Z,91813.40
2019-05-09T05:32:57.914Z,91811.66
2019-05-09T05:35:37.537Z,91810.55
2019-05-09T05:38:08.501Z,91807.68
2019-05-09T05:40:45.230Z,91803.45
2019-05-09T05:43:08.942Z,91802.97
2019-05-09T05:45:53.959Z,91807.34
2019-05-09T05:48:27.876Z,91805.62
2019-05-09T05:50:57.833Z,91807.27
2019-05-09T05:53:27.739Z,91801.38
2019-05-09T05:55:58.064Z,91800.92
2019-05-09T05:58:28.319Z,91800.44
2019-05-09T06:00:58.906Z,91804.12
2019-05-09T06:03:28.605Z,91796.64
2019-05-09T06:05:58.441Z,91797.75
2019-05-09T06:08:28.133Z,91790.34
2019-05-09T06:10:57.702Z,91791.69
2019-05-09T06:13:27.620Z,91781.97
2019-05-09T06:15:58.636Z,91782.59
2019-05-09T06:18:28.040Z,91780.41
2019-05-09T06:20:58.346Z,91780.16
2019-05-09T06:23:28.323Z,91778.97
2019-05-09T06:25:58.827Z,91777.63
2019-05-09T06:28:28.223Z,91781.02
2019-05-09T06:30:58.485Z,91784.79
2019-05-09T06:33:28.707Z,91779.98
2019-05-09T06:35:58.915Z,91770.67
2019-05-09T06:38:28.538Z,91773.55
2019-05-09T06:40:58.220Z,91769.40
2019-05-09T06:43:30.236Z,91768.00
2019-05-09T06:46:18.338Z,91762.36
2019-05-09T06:48:48.014Z,91756.11
2019-05-09T06:51:20.637Z,91753.47
2019-05-09T06:53:48.810Z,91763.22
2019-05-09T06:56:18.205Z,91761.77
2019-05-09T06:58:48.119Z,91755.54
2019-05-09T07:01:34.699Z,91751.92
2019-05-09T07:04:11.608Z,91752.54
2019-05-09T07:06:53.936Z,91759.21
2019-05-09T07:09:51.259Z,91754.72
2019-05-09T07:12:20.559Z,91746.13
2019-05-09T07:14:49.878Z,91740.92
2019-05-09T07:17:20.227Z,91740.90
2019-05-09T07:19:49.564Z,91736.66
2019-05-09T07:22:39.246Z,91736.50
2019-05-09T07:25:40.066Z,91733.06
2019-05-09T07:28:09.305Z,91725.67
2019-05-09T07:30:44.569Z,91726.15
2019-05-09T07:33:38.222Z,91727.22
2019-05-09T07:36:08.542Z,91717.16
2019-05-09T07:38:38.498Z,91714.26
2019-05-09T07:41:08.825Z,91722.28
2019-05-09T07:43:38.765Z,91719.41
2019-05-09T07:46:33.035Z,91713.70
2019-05-09T07:49:04.693Z,91711.64
2019-05-09T07:51:33.933Z,91699.80
2019-05-09T07:54:18.256Z,91696.86
2019-05-09T07:56:34.069Z,91699.73
2019-05-09T07:59:03.396Z,91703.42
2019-05-09T08:01:32.714Z,91703.14
2019-05-09T08:04:01.962Z,91691.84
2019-05-09T08:06:31.199Z,91688.19
2019-05-09T08:09:00.646Z,91683.42
2019-05-09T08:11:32.317Z,91684.26
2019-05-09T08:14:00.731Z,91680.73
2019-05-09T08:16:30.002Z,91670.50
2019-05-09T08:18:59.555Z,91678.03
2019-05-09T08:21:28.798Z,91670.83
2019-05-09T08:23:58.171Z,91675.48
2019-05-09T08:26:29.747Z,91670.77
2019-05-09T08:28:58.632Z,91664.64
2019-05-09T08:31:28.314Z,91655.13
2019-05-09T08:33:59.399Z,91655.27
2019-05-09T08:36:29.000Z,91652.45
2019-05-09T08:38:58.882Z,91648.72
2019-05-09T08:41:29.201Z,91650.48
2019-05-09T08:43:58.842Z,91648.09
2019-05-09T08:46:28.774Z,91654.37
2019-05-09T08:48:58.332Z,91641.42
2019-05-09T08:51:50.492Z,91635.08
2019-05-09T08:54:10.734Z,91637.75
2019-05-09T08:56:39.963Z,91629.48
2019-05-09T08:59:09.337Z,91625.07
2019-05-09T09:02:05.055Z,91627.17
2019-05-09T09:04:09.475Z,91623.98
2019-05-09T09:06:38.815Z,91619.12
2019-05-09T09:09:08.198Z,91616.30
2019-05-09T09:11:38.548Z,91612.44
2019-05-09T09:14:08.270Z,91606.81
2019-05-09T09:16:38.041Z,91603.17
2019-05-09T09:19:08.967Z,91607.73
2019-05-09T09:21:38.937Z,91604.42
2019-05-09T09:24:08.862Z,91599.30
2019-05-09T09:26:38.300Z,91599.14
2019-05-09T09:29:08.554Z,91596.02
2019-05-09T09:31:37.986Z,91585.87
2019-05-09T09:34:08.051Z,91579.19
2019-05-09T09:36:39.081Z,91577.99
2019-05-09T09:39:11.018Z,91580.92
2019-05-09T09:41:40.268Z,91573.05
2019-05-09T09:44:09.609Z,91566.90
2019-05-09T09:46:38.840Z,91565.50
2019-05-09T09:49:08.208Z,91572.29
2019-05-09T09:51:38.281Z,91573.14
2019-05-09T09:54:08.740Z,91569.11
2019-05-09T09:56:38.774Z,91574.79
2019-05-09T09:59:30.656Z,91570.44
2019-05-09T10:02:00.305Z,91568.41
2019-05-09T10:04:29.576Z,91562.27
2019-05-09T10:06:58.865Z,91563.56
2019-05-09T10:09:28.116Z,91560.72
2019-05-09T10:12:00.572Z,91564.10
2019-05-09T10:14:31.767Z,91556.72
2019-05-09T10:17:21.489Z,91549.11
2019-05-09T10:20:20.763Z,91555.91
2019-05-09T10:22:59.680Z,91544.28
2019-05-09T10:25:21.007Z,91545.69
2019-05-09T10:27:50.295Z,91546.94
2019-05-09T10:30:20.980Z,91545.77
2019-05-09T10:32:50.323Z,91546.05
2019-05-09T10:35:23.332Z,91551.40
2019-05-09T10:37:52.562Z,91548.87
2019-05-09T10:40:22.891Z,91544.95
2019-05-09T10:43:34.578Z,91535.23
2019-05-09T10:46:19.118Z,91536.43
2019-05-09T10:48:52.228Z,91539.19
2019-05-09T10:51:21.476Z,91528.69
2019-05-09T10:53:50.728Z,91529.81
2019-05-09T10:56:20.196Z,91524.09
2019-05-09T10:58:49.436Z,91527.63
2019-05-09T11:01:20.803Z,91526.63
2019-05-09T11:03:50.094Z,91529.02
2019-05-09T11:06:19.322Z,91531.88
2019-05-09T11:08:48.558Z,91530.25
2019-05-09T11:11:18.474Z,91528.66
2019-05-09T11:13:48.444Z,91530.55
2019-05-09T11:16:18.555Z,91528.61
2019-05-09T11:18:48.551Z,91534.98
2019-05-09T11:21:19.295Z,91538.53
2019-05-09T11:23:49.203Z,91534.78
2019-05-09T11:26:18.792Z,91543.05
2019-05-09T11:28:48.041Z,91547.64
2019-05-09T11:31:18.345Z,91546.02
2019-05-09T11:33:48.546Z,91548.55
2019-05-09T11:36:21.123Z,91546.06
2019-05-09T11:38:49.694Z,91545.55
2019-05-09T11:41:19.714Z,91548.65
2019-05-09T11:43:49.087Z,91547.39
2019-05-09T11:46:18.746Z,91554.95
2019-05-09T11:48:48.295Z,91554.79
2019-05-09T11:51:22.726Z,91559.45
2019-05-09T11:53:51.112Z,91554.69
2019-05-09T11:56:20.441Z,91560.70
2019-05-09T11:58:49.695Z,91557.11
2019-05-09T12:01:19.361Z,91557.98
2019-05-09T12:03:52.386Z,91560.53
2019-05-09T12:06:21.615Z,91562.03
2019-05-09T12:08:50.854Z,91554.92
2019-05-09T12:11:20.125Z,91557.06
2019-05-09T12:13:49.643Z,91560.71
2019-05-09T12:16:18.975Z,91558.10
2019-05-09T12:18:49.019Z,91560.55
2019-05-09T12:21:19.443Z,91550.74
2019-05-09T12:23:49.737Z,91551.80
2019-05-09T12:26:19.248Z,91549.95
2019-05-09T12:28:48.899Z,91545.54
2019-05-09T12:31:18.562Z,91549.84
2019-05-09T12:33:48.590Z,91552.12
2019-05-09T12:36:19.050Z,91551.24
2019-05-09T12:38:49.981Z,91556.36
2019-05-09T12:41:19.645Z,91554.86
2019-05-09T12:43:48.896Z,91558.84
2019-05-09T12:46:18.152Z,91555.48
2019-05-09T12:48:48.131Z,91548.23
2019-05-09T12:51:18.459Z,91545.32
2019-05-09T12:53:48.604Z,91534.47
2019-05-09T12:56:18.876Z,91538.95
2019-05-09T12:58:48.175Z,91537.96
2019-05-09T13:01:18.774Z,91532.80
2019-05-09T13:10:09.098Z,91521.77
2019-05-09T13:12:39.053Z,91518.42
2019-05-09T13:15:09.027Z,91510.45
2019-05-09T13:17:48.040Z,91512.86
2019-05-09T13:20:18.578Z,91517.44
2019-05-09T13:22:47.903Z,91515.16
2019-05-09T13:25:18.873Z,91516.05
2019-05-09T13:27:51.718Z,91509.80
2019-05-09T13:30:19.657Z,91512.09
2019-05-09T13:36:13.255Z,91504.63
2019-05-09T13:38:56.410Z,91501.41
2019-05-09T13:41:14.467Z,91494.80
2019-05-09T13:43:47.405Z,91494.91
2019-05-09T13:46:14.663Z,91491.28
2019-05-09T13:49:04.500Z,91492.61
2019-05-09T13:51:14.849Z,91489.91
2019-05-09T13:53:44.090Z,91497.94
2019-05-09T13:56:13.356Z,91506.45
2019-05-09T13:58:42.640Z,91503.58
2019-05-09T14:01:11.957Z,91501.11
2019-05-09T14:03:41.193Z,91498.00
2019-05-09T14:06:10.826Z,91491.48
2019-05-09T14:08:40.057Z,91499.62
2019-05-09T14:11:09.342Z,91494.45
2019-05-09T14:13:38.649Z,91495.16
2019-05-09T14:16:18.862Z,91482.91
2019-05-09T14:18:38.745Z,91476.83
2019-05-09T14:21:08.038Z,91470.14
2019-05-09T14:23:48.240Z,91474.16
2019-05-09T14:26:09.371Z,91476.37
2019-05-09T14:28:40.286Z,91483.67
2019-05-09T14:31:09.524Z,91486.73
2019-05-09T14:33:39.040Z,91481.66
2019-05-09T14:36:08.407Z,91480.73
2019-05-09T14:38:39.270Z,91485.17
2019-05-09T14:41:09.537Z,91480.42
2019-05-09T14:43:39.541Z,91479.83
2019-05-09T14:46:09.036Z,91480.54
2019-05-09T14:48:38.255Z,91470.87
2019-05-09T14:51:07.824Z,91466.63
2019-05-09T14:53:39.052Z,91459.72
2019-05-09T14:56:08.695Z,91460.05
2019-05-09T14:58:38.929Z,91460.28
2019-05-09T15:01:08.781Z,91461.39
2019-05-09T15:03:38.936Z,91460.76
2019-05-09T15:06:08.684Z,91452.59
2019-05-09T15:08:38.315Z,91440.06
2019-05-09T15:11:09.733Z,91437.39
2019-05-09T15:13:38.758Z,91442.72
2019-05-09T15:16:08.891Z,91444.48
2019-05-09T15:18:38.687Z,91447.03
2019-05-09T15:21:08.137Z,91437.13
2019-05-09T15:23:40.692Z,91433.56
2019-05-09T15:26:10.050Z,91433.75
2019-05-09T15:28:39.391Z,91430.18
2019-05-09T15:31:08.950Z,91429.30
2019-05-09T15:33:38.275Z,91423.72
2019-05-09T15:36:09.144Z,91423.89
2019-05-09T15:38:38.556Z,91426.77
2019-05-09T15:41:12.052Z,91415.34
2019-05-09T15:43:38.901Z,91410.48
2019-05-09T15:46:14.673Z,91407.23
2019-05-09T15:48:44.028Z,91399.44
2019-05-09T15:51:13.256Z,91400.20
2019-05-09T15:53:42.492Z,91391.89
2019-05-09T15:56:11.787Z,91399.62
2019-05-09T15:58:41.001Z,91394.80
2019-05-09T16:01:12.036Z,91386.79
2019-05-09T16:03:41.317Z,91381.70
2019-05-09T16:06:10.552Z,91378.53
2019-05-09T16:08:39.789Z,91369.70
2019-05-09T16:11:09.162Z,91362.14
2019-05-09T16:13:38.391Z,91350.48
2019-05-09T16:16:08.944Z,91363.13
2019-05-09T16:18:38.471Z,91371.45
2019-05-09T16:21:08.452Z,91375.84
2019-05-09T16:23:38.081Z,91374.09
2019-05-09T16:26:07.969Z,91361.97
2019-05-09T16:28:37.922Z,91360.27
2019-05-09T16:31:07.280Z,91363.08
2019-05-09T16:33:36.859Z,91358.16
2019-05-09T16:36:06.112Z,91356.64
2019-05-09T16:38:43.359Z,91359.16
2019-05-09T16:41:07.712Z,91346.45
2019-05-09T16:43:38.759Z,91341.30
2019-05-09T16:46:08.093Z,91340.25
2019-05-09T16:48:37.481Z,91339.02
2019-05-09T16:51:07.887Z,91341.83
2019-05-09T16:53:37.461Z,91350.96
2019-05-09T16:56:08.204Z,91346.44
2019-05-09T16:58:37.933Z,91348.33
2019-05-09T17:01:08.311Z,91347.39
2019-05-09T17:03:37.630Z,91352.25
2019-05-09T17:06:07.692Z,91354.06
2019-05-09T17:08:38.533Z,91356.45
2019-05-09T17:11:08.208Z,91357.06
2019-05-09T17:13:40.980Z,91344.36
2019-05-09T17:16:10.267Z,91342.25
2019-05-09T17:18:39.504Z,91338.32
2019-05-09T17:21:24.201Z,91346.56
2019-05-09T17:23:49.677Z,91350.47
2019-05-09T17:26:19.027Z,91344.65
2019-05-09T17:28:48.559Z,91348.56
2019-05-09T17:31:18.287Z,91351.48
2019-05-09T17:33:48.553Z,91358.61
2019-05-09T17:36:18.311Z,91362.65
2019-05-09T17:38:47.916Z,91368.66
2019-05-09T17:41:17.853Z,91370.80
2019-05-09T17:43:47.572Z,91359.98
2019-05-09T17:46:19.164Z,91363.70
2019-05-09T17:48:51.660Z,91357.72
2019-05-09T17:51:32.552Z,91357.02
2019-05-09T17:53:52.322Z,91359.02
2019-05-09T17:56:21.811Z,91359.77
2019-05-09T17:58:51.054Z,91358.00
2019-05-09T18:01:20.304Z,91353.51
2019-05-09T18:03:49.732Z,91355.75
2019-05-09T18:06:19.309Z,91354.33
2019-05-09T18:08:48.840Z,91358.28
2019-05-09T18:11:18.288Z,91364.36
2019-05-09T18:13:48.199Z,91352.72
2019-05-09T18:16:19.027Z,91358.03
2019-05-09T18:18:48.906Z,91362.09
2019-05-09T18:21:18.133Z,91359.25
2019-05-09T18:23:47.888Z,91364.50
2019-05-09T18:26:18.518Z,91370.55
2019-05-09T18:28:48.116Z,91361.26
2019-05-09T18:31:17.352Z,91362.54
2019-05-09T18:33:54.193Z,91359.98
2019-05-09T18:36:23.416Z,91357.68
2019-05-09T18:38:52.747Z,91361.32
2019-05-09T18:41:22.165Z,91360.10
2019-05-09T18:43:51.405Z,91354.47
2019-05-09T18:46:21.771Z,91350.31
2019-05-09T18:48:51.059Z,91351.41
2019-05-09T18:51:20.304Z,91349.74
2019-05-09T18:53:49.661Z,91354.55
2019-05-09T18:56:18.948Z,91353.65
2019-05-09T18:58:48.697Z,91353.20
2019-05-09T19:01:17.930Z,91352.11
2019-05-09T19:03:47.212Z,91350.31
2019-05-09T19:06:16.463Z,91349.05
2019-05-09T19:08:45.696Z,91350.33
2019-05-09T19:11:15.060Z,91346.50
2019-05-09T19:13:44.364Z,91339.59
2019-05-09T19:16:27.349Z,91347.81
2019-05-09T19:19:27.677Z,91346.91
2019-05-09T19:22:06.388Z,91349.73
2019-05-09T19:24:32.973Z,91360.98
2019-05-09T19:27:02.216Z,91358.21
2019-05-09T19:29:31.582Z,91351.56
2019-05-09T19:32:00.823Z,91347.80
2019-05-09T19:34:30.095Z,91357.71
2019-05-09T19:36:59.419Z,91355.61
2019-05-09T19:39:28.681Z,91357.53
2019-05-09T19:41:57.928Z,91362.55
2019-05-09T19:44:27.199Z,91361.28
2019-05-09T19:46:56.646Z,91355.77
2019-05-09T19:49:25.885Z,91362.05
2019-05-09T19:51:55.160Z,91359.11
2019-05-09T19:54:24.504Z,91352.58
2019-05-09T19:56:53.733Z,91352.92
2019-05-09T19:59:23.187Z,91348.38
2019-05-09T20:01:52.419Z,91344.93
2019-05-09T20:04:29.135Z,91350.87
2019-05-09T20:06:58.372Z,91359.52
2019-05-09T20:09:33.792Z,91363.02
2019-05-09T20:12:34.216Z,91364.16
2019-05-09T20:15:03.660Z,91369.50
2019-05-09T20:17:32.893Z,91371.70
2019-05-09T20:20:05.191Z,91365.69
2019-05-09T20:22:34.481Z,91372.42
2019-05-09T20:25:03.918Z,91377.95
2019-05-09T20:27:33.142Z,91375.14
2019-05-09T20:30:02.433Z,91372.78
2019-05-09T20:32:31.651Z,91370.20
2019-05-09T20:35:00.902Z,91369.33
2019-05-09T20:37:30.566Z,91365.44
2019-05-09T20:39:59.962Z,91369.77
2019-05-09T20:42:29.430Z,91377.11
2019-05-09T20:44:58.908Z,91369.63
2019-05-09T20:47:28.417Z,91369.67
2019-05-09T20:49:57.837Z,91349.28
2019-05-09T20:52:27.394Z,91352.41
2019-05-09T20:54:56.900Z,91352.67
2019-05-09T20:57:26.328Z,91348.77
2019-05-09T20:59:55.847Z,91350.94
2019-05-09T21:02:25.267Z,91349.98
2019-05-09T21:04:54.684Z,91350.11
2019-05-09T21:07:24.148Z,91339.55
2019-05-09T21:09:53.711Z,91347.69
2019-05-09T21:12:23.131Z,91346.27
2019-05-09T21:14:52.600Z,91352.03
2019-05-09T21:17:22.129Z,91355.80
2019-05-09T21:19:51.524Z,91355.53
2019-05-09T21:22:21.052Z,91356.89
2019-05-09T21:24:50.461Z,91354.66
2019-05-09T21:27:19.887Z,91350.55
2019-05-09T21:29:49.352Z,91339.94
2019-05-09T21:32:18.780Z,91332.45
2019-05-09T21:34:48.025Z,91336.61
2019-05-09T21:37:20.444Z,91333.35
2019-05-09T21:39:49.742Z,91332.39
2019-05-09T21:42:18.969Z,91330.41
2019-05-09T21:44:48.320Z,91326.77
2019-05-09T21:47:17.834Z,91322.30
2019-05-09T21:49:47.042Z,91319.41
2019-05-09T21:52:16.313Z,91307.20
2019-05-09T21:54:45.536Z,91313.84
2019-05-09T21:57:14.783Z,91317.43
2019-05-09T21:59:44.043Z,91308.09
2019-05-09T22:02:13.673Z,91304.58
2019-05-09T22:04:42.906Z,91301.00
2019-05-09T22:07:12.231Z,91302.78
2019-05-09T22:09:41.461Z,91303.23
2019-05-09T22:12:10.715Z,91301.95
2019-05-09T22:14:41.566Z,91302.53
2019-05-09T22:17:17.792Z,91299.78
2019-05-09T22:19:47.079Z,91295.50
2019-05-09T22:22:16.317Z,91302.15
2019-05-09T22:24:45.558Z,91301.89
2019-05-09T22:27:14.890Z,91307.84
2019-05-09T22:29:44.135Z,91305.84
2019-05-09T22:32:13.368Z,91308.59
2019-05-09T22:34:42.639Z,91304.70
2019-05-09T22:37:11.879Z,91309.55
2019-05-09T22:39:41.151Z,91305.59
2019-05-09T22:42:10.560Z,91304.31
2019-05-09T22:44:39.902Z,91304.38
2019-05-09T22:47:09.350Z,91300.61
2019-05-09T22:49:38.680Z,91299.91
2019-05-09T22:52:07.918Z,91305.33
2019-05-09T22:54:37.136Z,91309.70
2019-05-09T22:57:06.415Z,91312.37
2019-05-09T22:59:35.654Z,91310.95
2019-05-09T23:02:07.073Z,91317.06
2019-05-09T23:04:35.802Z,91314.68
2019-05-09T23:07:05.040Z,91322.69
2019-05-09T23:09:34.272Z,91324.63
2019-05-09T23:12:03.736Z,91312.56
2019-05-09T23:14:32.980Z,91314.53
2019-05-09T23:17:02.208Z,91309.77
2019-05-09T23:19:31.485Z,91303.61
2019-05-09T23:22:00.724Z,91298.05
2019-05-09T23:24:32.000Z,91302.91
2019-05-09T23:27:01.229Z,91306.67
2019-05-09T23:29:30.464Z,91311.25
2019-05-09T23:32:24.547Z,91315.10
2019-05-09T23:34:54.082Z,91308.38
2019-05-09T23:37:23.325Z,91304.23
2019-05-09T23:39:52.913Z,91308.30
2019-05-09T23:42:22.157Z,91303.70
2019-05-09T23:44:51.390Z,91300.09
2019-05-09T23:47:20.900Z,91298.84
2019-05-09T23:49:50.123Z,91287.58
2019-05-09T23:52:19.354Z,91298.27
2019-05-09T23:55:06.157Z,91296.25
2019-05-09T23:57:52.906Z,91298.63
